Nearby METAR Reports

 

LIBG - Grottaglie(Civ/A, Italy
Distance from station: PnWs 13km
Aktualizacja: 01/03/2021 19:50
NOT Current
Bezchmurnie
Bezchmurnie
 Wiatr z Pn
Wiatr: Pn 11 km/h
Temperatura: 9°C
Wind Chill: 7°C
Punkt Rosy: 6°C
Wilgotność: 82%
Ciśnienie: 1027 hPa
Podsumowanie: Bezchmurnie
Visibility: greater than 10 km
2021/03/01 18:50 LIBG 011850Z 35006KT CAVOK 09/06 Q1027
LIBH - Marina Di Ginosa, Italy
Distance from station: Zd 33km
Aktualizacja: 02/03/2021 02:55
Bezchmurnie
Bezchmurnie
 Wiatr z PnZd
Wiatr: PnZd 20 km/h
Temperatura: 7°C
Wind Chill: 4°C
Punkt Rosy: 5°C
Wilgotność: 87%
Ciśnienie: 1026 hPa
Podsumowanie: Bezchmurnie
Visibility: greater than 10 km
2021/03/02 01:55 LIBH 020155Z 31011KT CAVOK 07/05 Q1026 RMK SKC QUK / QUL / VIS MAR 25 KM VIS MIN 9999
 
LIBV - Gioia Del Colle, Italy
Distance from station: PnZd 45km
Aktualizacja: 02/03/2021 02:55
Bezchmurnie
Bezchmurnie
 Wiatr z PnPnZd
Wiatr: PnPnZd 13 km/h
Temperatura: 6°C
Wind Chill: 3°C
Punkt Rosy: 2°C
Wilgotność: 76%
Ciśnienie: 1027 hPa
Podsumowanie: Bezchmurnie
Visibility: greater than 10 km
2021/03/02 01:55 LIBV 020155Z 34007KT CAVOK 06/02 Q1027 RMK SKC VIS MIN 9999 WIND THR32 36010KT WIND THR14 33010KT BLU
LIBR - Brindisi/Casale, Italy
Distance from station: WsPnWs 62km
Aktualizacja: 02/03/2021 02:50
Bezchmurnie
Bezchmurnie
 Wiatr z PnZd
Wiatr: PnZd 24 km/h
Temperatura: 10°C
Wind Chill: 7°C
Punkt Rosy: 8°C
Wilgotność: 88%
Ciśnienie: 1028 hPa
Clouds: Bezchmurnie
Visibility: 10 km
2021/03/02 01:50 LIBR 020150Z AUTO 32013KT 9999 NCD 10/08 Q1028
 
LIBN - Lecce (it-Afb), Italy
Distance from station: WsPdWs 79km
Aktualizacja: 02/03/2021 02:55
Bezchmurnie
Bezchmurnie
 Wiatr z PnPnZd
Wiatr: PnPnZd 26 km/h
Temperatura: 9°C
Wind Chill: 6°C
Punkt Rosy: 8°C
Wilgotność: 94%
Ciśnienie: 1026 hPa
Podsumowanie: Bezchmurnie
Visibility: greater than 10 km
2021/03/02 01:55 LIBN 020155Z 33014KT CAVOK 09/08 Q1026 RMK SKC VIS MIN 9999 WIND THR14 34013KT WIND THR32 33009KT BLU
LIBD - Bari/Palese Macc, Italy
Distance from station: PnPnZd 85km
Aktualizacja: 02/03/2021 02:50
Bezchmurnie
Bezchmurnie
 Wiatr z ZdPdZa
Wiatr: ZdPdZa 13 km/h
Temperatura: 6°C
Wind Chill: 3°C
Punkt Rosy: 3°C
Wilgotność: 81%
Ciśnienie: 1029 hPa
Podsumowanie: Bezchmurnie
Visibility: greater than 10 km
2021/03/02 01:50 LIBD 020150Z 25007KT CAVOK 06/03 Q1029